Terminal Aerodrome Forecast
Issued by NWS

Current Version | Previous Version | Text Only | Print | Product List | Glossary On
Versions: 1 2 3 4 5 6 7 8 9 10 11 12 13 14 15
000
FTPQ31 PGUM 251127
TAFGUM
TAF

TAF
PTKK 251127Z 2512/2612 06010KT P6SM VCSH SCT014 SCT030 BKN130
      TEMPO 2512/2516 5SM -SHRA SCT014 BKN025=

USA.gov is the U.S. government's official web portal to all federal, state and local government web resources and services.